Pagrindinis puslapis
METAR-TAF:

METAR-TAF

Oro uostai :

Enugu, Nigerija

platuma: 06-28N, ilguma: 007-33E, Aukštis: 137 m

Dabartinis oras

Ataskaita buvo paskelbta 1 valandą ir 10 minutes, ne 20:00 UTC
Vėjas 3 kt iš Šiaurės Vakarų
Temperatūra 29°C
Drėgmė 84%
Slėgis 1009 hPa
Matomumas 10 km arba daugiau
Išsisklaidę debesys ne aukštis 1300 ft
Mažai debesys ne aukštis 2100 ft, Liūtiniai kamuoliniai debesys.
perkūnija,

METAR: DNEN 152000Z 31003KT 9999 TS SCT013 FEW021CB 29/26 Q1009 NOSIG

Laikas: 22:10 (21:10 UTC)


TAF: trūkstamas

Orai ataskaitas ir orų prognozės (METAR, TAF).

turimą stotys yra geltonos ir raudonos taškus žemėlapyje.

Perkelti pele per norėdami pamatyti stoties vardą.

Tada spustelėkite, norėdami matyti oro stebėjimo ir prognozės.

Norėdami pakeisti žemėlapį: spustelėkite ant žalios mygtukų su juodo kryžiaus žemyn,; žalią mygtuką su brūkšneliu, jei norite nutolinti; arba žalių rodyklių gretimoms žemėlapius.


METAR-TAF: